Time;durP1;ratioP1;P1;durP2;ratioP2;P2;SDS_P1;SDS_P2;PMS_P1;PMS_P2;Temp;Humidity;BMP_temperature;BMP_pressure;BME280_temperature;BME280_humidity;BME280_pressure;Samples;Min_cycle;Max_cycle;Signal;HPM_P1;HPM_P2
2021/10/04 00:01:48;;;;;;;10.80;5.80;;;;;;;10.43;78.24;96810.23;115534;1199;61485;-82
2021/10/04 00:04:19;;;;;;;8.40;5.60;;;;;;;10.44;78.14;96810.40;115465;1199;59968;-82
2021/10/04 00:06:50;;;;;;;7.90;5.70;;;;;;;10.37;77.78;96814.55;115392;1199;59533;-82
2021/10/04 00:09:22;;;;;;;7.60;5.50;;;;;;;10.26;78.41;96812.36;114031;1198;1766852;-80
2021/10/04 00:11:53;;;;;;;8.30;5.50;;;;;;;10.23;78.64;96810.95;115350;1199;68488;-83
2021/10/04 00:14:25;;;;;;;7.70;5.50;;;;;;;10.28;78.56;96814.70;115616;1199;29321;-83
2021/10/04 00:16:57;;;;;;;10.60;5.90;;;;;;;10.35;78.57;96811.70;115473;1198;29391;-84
2021/10/04 00:19:27;;;;;;;9.70;5.90;;;;;;;10.40;78.53;96815.02;115414;1193;28337;-84
2021/10/04 00:21:58;;;;;;;8.70;5.80;;;;;;;10.44;78.48;96812.10;115419;1192;47894;-83
2021/10/04 00:24:27;;;;;;;;;;;;;;;10.41;78.65;96811.15;115640;1192;25067;-84
2021/10/04 00:26:58;;;;;;;10.40;6.00;;;;;;;10.34;78.59;96809.48;115640;1198;30706;-83
2021/10/04 00:29:28;;;;;;;10.00;6.20;;;;;;;10.34;78.90;96804.71;115618;1199;29162;-84
2021/10/04 00:31:59;;;;;;;8.00;5.50;;;;;;;10.39;78.94;96809.34;115561;1199;62939;-83
2021/10/04 00:34:30;;;;;;;7.90;5.60;;;;;;;10.30;78.86;96806.25;115657;1198;29571;-84
2021/10/04 00:37:01;;;;;;;8.00;6.20;;;;;;;10.12;79.07;96807.83;115567;1193;48434;-83
2021/10/04 00:39:32;;;;;;;8.60;6.10;;;;;;;10.12;79.44;96805.22;115599;1199;30215;-84
2021/10/04 00:42:04;;;;;;;9.60;5.90;;;;;;;10.14;79.51;96800.04;115378;1193;55446;-85
2021/10/04 00:44:35;;;;;;;8.40;6.30;;;;;;;10.18;79.52;96803.26;115481;1199;28182;-84
2021/10/04 00:47:06;;;;;;;8.70;5.60;;;;;;;10.24;79.40;96799.11;115463;1198;27951;-83
2021/10/04 00:49:37;;;;;;;11.10;6.30;;;;;;;10.29;79.12;96803.05;115403;1199;29602;-83
2021/10/04 00:52:08;;;;;;;7.70;5.60;;;;;;;10.14;79.13;96798.77;115224;1200;69068;-83
2021/10/04 00:54:39;;;;;;;10.50;6.00;;;;;;;9.96;79.44;96798.45;115244;1200;50554;-85
2021/10/04 00:57:10;;;;;;;8.00;5.90;;;;;;;9.94;79.99;96799.45;115487;1199;41118;-84
2021/10/04 00:59:42;;;;;;;9.50;5.90;;;;;;;9.96;80.80;96799.70;115623;1194;29459;-84
2021/10/04 01:02:12;;;;;;;8.70;6.30;;;;;;;9.98;80.95;96799.96;115635;1198;28690;-84
2021/10/04 01:04:44;;;;;;;9.80;6.50;;;;;;;9.99;80.67;96798.98;115225;1200;26632;-84
2021/10/04 01:07:15;;;;;;;9.20;6.80;;;;;;;10.04;80.43;96797.85;115509;1199;38432;-83
2021/10/04 01:09:45;;;;;;;10.30;5.90;;;;;;;10.08;80.35;96797.45;115461;1199;29312;-83
2021/10/04 01:12:17;;;;;;;8.90;6.20;;;;;;;10.13;80.56;96796.44;115441;1199;55453;-84
2021/10/04 01:14:48;;;;;;;9.30;6.70;;;;;;;10.15;80.47;96797.50;115701;1199;26656;-84
2021/10/04 01:17:19;;;;;;;8.40;5.90;;;;;;;10.18;80.51;96793.50;115657;1199;49780;-83
2021/10/04 01:19:49;;;;;;;11.30;6.70;;;;;;;10.21;80.36;96792.02;115492;1199;62564;-84
2021/10/04 01:22:20;;;;;;;9.10;6.40;;;;;;;10.26;80.32;96794.71;115746;1199;26960;-83
2021/10/04 01:24:51;;;;;;;9.80;6.60;;;;;;;10.29;80.30;96794.46;115673;1199;28672;-83
2021/10/04 01:27:22;;;;;;;11.10;6.30;;;;;;;10.30;80.09;96788.98;115608;1198;52121;-83
2021/10/04 01:29:52;;;;;;;10.00;6.50;;;;;;;10.25;80.00;96790.95;115574;1199;50067;-82
2021/10/04 01:32:22;;;;;;;;;;;;;;;10.18;79.97;96790.86;115230;1192;48542;-84
2021/10/04 01:34:56;;;;;;;9.40;6.30;;;;;;;10.12;80.22;96792.66;115653;1199;37460;-83
2021/10/04 01:37:27;;;;;;;9.90;6.10;;;;;;;10.09;80.27;96788.86;115732;1198;26433;-83
2021/10/04 01:39:58;;;;;;;7.60;5.50;;;;;;;10.06;80.37;96783.32;115670;1199;23718;-83
2021/10/04 01:42:29;;;;;;;11.30;7.10;;;;;;;10.07;80.71;96787.98;115628;1199;27545;-83
2021/10/04 01:45:00;;;;;;;9.50;6.50;;;;;;;10.08;80.71;96786.96;115593;1199;54860;-83
2021/10/04 01:47:31;;;;;;;10.70;6.30;;;;;;;10.14;80.65;96787.54;115624;1198;29294;-82
2021/10/04 01:50:02;;;;;;;8.20;5.60;;;;;;;10.13;80.28;96787.12;115574;1199;34752;-84
2021/10/04 01:52:32;;;;;;;9.40;6.40;;;;;;;10.00;80.10;96781.27;115649;1199;27633;-83
2021/10/04 01:55:04;;;;;;;9.30;6.80;;;;;;;9.82;80.57;96784.13;115256;1200;24507;-83
2021/10/04 01:57:35;;;;;;;8.40;6.40;;;;;;;9.76;81.23;96786.36;115284;1200;48479;-83
2021/10/04 02:00:11;;;;;;;8.60;6.60;;;;;;;9.80;81.30;96785.51;115215;1200;28892;-83
2021/10/04 02:02:44;;;;;;;7.70;6.00;;;;;;;9.85;81.83;96786.93;115555;1192;28423;-84
2021/10/04 02:05:15;;;;;;;10.30;6.80;;;;;;;9.86;81.76;96784.92;115306;1198;31270;-84
2021/10/04 02:07:46;;;;;;;9.60;6.60;;;;;;;9.90;81.73;96789.09;115259;1200;25876;-82
2021/10/04 02:10:24;;;;;;;11.10;6.80;;;;;;;9.89;81.96;96782.58;115447;1199;56491;-84
2021/10/04 02:12:56;;;;;;;9.10;6.30;;;;;;;9.91;81.90;96787.08;115317;1192;56588;-83
2021/10/04 02:15:27;;;;;;;8.80;6.70;;;;;;;9.99;81.74;96787.85;115208;1200;31372;-83
2021/10/04 02:17:58;;;;;;;7.90;5.50;;;;;;;10.03;81.58;96789.53;115549;1194;55739;-83
2021/10/04 02:20:33;;;;;;;9.70;6.70;;;;;;;10.02;81.35;96788.90;115586;1192;50584;-82
2021/10/04 02:23:06;;;;;;;10.50;6.80;;;;;;;9.96;81.37;96794.95;115449;1199;29107;-83
2021/10/04 02:25:39;;;;;;;9.70;6.70;;;;;;;9.83;81.77;96788.31;115571;1199;52948;-83
2021/10/04 02:28:12;;;;;;;9.60;6.60;;;;;;;9.81;82.04;96788.89;115651;1192;28288;-83
2021/10/04 02:30:43;;;;;;;9.40;6.70;;;;;;;9.87;81.99;96787.56;115535;1199;55792;-83
2021/10/04 02:33:14;;;;;;;9.30;6.40;;;;;;;9.94;81.91;96789.76;115374;1199;90599;-83
2021/10/04 02:35:45;;;;;;;9.20;6.30;;;;;;;9.99;81.76;96789.33;115536;1199;27915;-83
2021/10/04 02:38:16;;;;;;;10.10;6.50;;;;;;;9.95;81.64;96789.86;115165;1200;48997;-83
2021/10/04 02:40:49;;;;;;;10.00;7.00;;;;;;;9.81;82.04;96784.81;115305;1200;28336;-84
2021/10/04 02:43:20;;;;;;;10.50;6.70;;;;;;;9.73;82.80;96788.98;115296;1200;35494;-84
2021/10/04 02:45:52;;;;;;;9.10;6.00;;;;;;;9.69;83.29;96792.20;115456;1193;58918;-85
2021/10/04 02:48:23;;;;;;;9.60;6.80;;;;;;;9.58;83.22;96795.19;115412;1199;29532;-84
2021/10/04 02:50:54;;;;;;;10.00;6.80;;;;;;;9.58;83.32;96789.09;115508;1199;54730;-83
2021/10/04 02:53:24;;;;;;;9.90;6.80;;;;;;;9.65;83.33;96790.36;115577;1199;54710;-83
2021/10/04 02:55:55;;;;;;;10.70;7.00;;;;;;;9.73;83.46;96791.77;115550;1198;26589;-83
2021/10/04 02:58:26;;;;;;;8.70;6.80;;;;;;;9.76;83.35;96797.80;115391;1199;54365;-83
2021/10/04 03:00:55;;;;;;;;;;;;;;;9.72;83.29;96796.08;115556;1199;29097;-84
2021/10/04 03:03:26;;;;;;;8.30;6.10;;;;;;;9.72;83.50;96792.73;115487;1199;57605;-83
2021/10/04 03:05:57;;;;;;;9.10;6.40;;;;;;;9.72;83.76;96791.78;115584;1198;51274;-83
2021/10/04 03:08:27;;;;;;;9.40;6.80;;;;;;;9.72;83.97;96790.89;115650;1199;26720;-83
2021/10/04 03:10:58;;;;;;;9.60;6.90;;;;;;;9.73;84.27;96794.95;115582;1198;48188;-83
2021/10/04 03:13:29;;;;;;;9.00;6.90;;;;;;;9.72;84.36;96794.36;115497;1198;70120;-83
2021/10/04 03:16:00;;;;;;;9.20;6.70;;;;;;;9.69;84.60;96792.98;115555;1199;59896;-83
2021/10/04 03:18:30;;;;;;;10.90;6.70;;;;;;;9.65;84.48;96794.75;115611;1199;46127;-83
2021/10/04 03:21:01;;;;;;;10.00;6.60;;;;;;;9.61;84.21;96794.60;115611;1199;57304;-84
2021/10/04 03:23:32;;;;;;;11.80;7.00;;;;;;;9.54;84.63;96800.80;114566;1199;1227871;-83
2021/10/04 03:26:03;;;;;;;9.60;6.70;;;;;;;9.58;84.79;96800.12;115594;1199;28142;-84
2021/10/04 03:28:34;;;;;;;9.70;6.60;;;;;;;9.66;84.84;96799.19;115581;1193;47588;-83
2021/10/04 03:31:04;;;;;;;10.70;6.60;;;;;;;9.77;84.67;96795.42;115291;1199;50782;-83
2021/10/04 03:33:35;;;;;;;10.20;6.60;;;;;;;9.84;84.30;96797.31;115482;1199;38197;-84
2021/10/04 03:36:07;;;;;;;9.50;6.80;;;;;;;9.88;83.97;96796.36;115436;1198;54681;-84
2021/10/04 03:38:38;;;;;;;7.90;6.30;;;;;;;9.88;83.62;96794.81;115275;1199;58228;-83
2021/10/04 03:41:08;;;;;;;10.10;6.90;;;;;;;9.89;83.52;96801.27;115306;1199;27614;-84
2021/10/04 03:43:38;;;;;;;;;;;;;;;9.91;83.50;96803.92;115526;1193;47584;-83
2021/10/04 03:46:09;;;;;;;12.30;6.50;;;;;;;9.91;83.58;96796.66;115526;1199;54186;-83
2021/10/04 03:48:39;;;;;;;8.60;6.00;;;;;;;9.90;83.39;96791.85;115439;1199;45048;-83
2021/10/04 03:51:10;;;;;;;10.00;6.50;;;;;;;9.90;83.35;96794.87;115520;1192;59146;-83
2021/10/04 03:53:39;;;;;;;;;;;;;;;9.92;83.28;96796.44;115591;1199;54959;-84
2021/10/04 03:56:10;;;;;;;7.60;5.70;;;;;;;9.93;83.22;96797.81;115551;1199;72940;-83
2021/10/04 03:58:41;;;;;;;11.80;6.80;;;;;;;9.91;83.14;96795.92;115565;1192;52706;-83
2021/10/04 04:01:12;;;;;;;9.50;6.60;;;;;;;9.83;83.38;96793.70;115612;1191;26123;-84
2021/10/04 04:03:43;;;;;;;8.30;6.50;;;;;;;9.83;83.47;96797.36;115327;1199;26315;-83
2021/10/04 04:06:13;;;;;;;11.70;7.10;;;;;;;9.80;83.82;96797.41;115264;1200;26393;-83
2021/10/04 04:08:45;;;;;;;9.80;7.00;;;;;;;9.80;84.34;96800.60;115507;1199;29034;-82
2021/10/04 04:11:15;;;;;;;10.00;6.20;;;;;;;9.81;84.44;96796.57;115566;1199;29130;-83
2021/10/04 04:13:46;;;;;;;9.70;6.20;;;;;;;9.81;84.69;96790.00;115586;1199;61242;-82
2021/10/04 04:16:17;;;;;;;9.30;6.40;;;;;;;9.83;84.68;96793.07;115464;1192;51920;-83
2021/10/04 04:18:48;;;;;;;9.50;6.90;;;;;;;9.86;84.61;96792.27;115675;1199;28637;-83
2021/10/04 04:21:19;;;;;;;9.50;6.70;;;;;;;9.86;84.58;96796.30;115585;1198;28228;-83
2021/10/04 04:23:50;;;;;;;9.60;6.50;;;;;;;9.88;84.30;96797.89;115580;1198;26100;-82
2021/10/04 04:26:21;;;;;;;9.20;5.80;;;;;;;9.91;84.14;96792.05;115623;1192;29458;-82
2021/10/04 04:28:52;;;;;;;11.40;6.80;;;;;;;10.00;84.23;96796.21;115606;1199;29172;-83
2021/10/04 04:31:23;;;;;;;10.20;6.80;;;;;;;10.07;84.00;96797.67;115604;1192;35989;-82
2021/10/04 04:33:53;;;;;;;9.60;6.70;;;;;;;10.14;83.99;96796.17;115332;1198;29127;-83
2021/10/04 04:36:24;;;;;;;8.70;5.90;;;;;;;10.24;83.83;96793.88;115437;1199;28236;-83
2021/10/04 04:38:55;;;;;;;11.60;6.80;;;;;;;10.28;83.62;96799.49;115559;1184;31548;-83
2021/10/04 04:41:24;;;;;;;;;;;;;;;10.23;83.55;96797.15;115451;1192;37306;-83
2021/10/04 04:43:55;;;;;;;10.50;6.60;;;;;;;10.06;83.63;96798.95;115416;1199;27754;-83
2021/10/04 04:46:26;;;;;;;9.20;6.20;;;;;;;10.05;83.81;96797.63;115430;1197;69714;-85
2021/10/04 04:48:57;;;;;;;8.50;6.80;;;;;;;10.11;83.77;96801.56;115462;1198;31355;-83
2021/10/04 04:51:29;;;;;;;8.00;6.10;;;;;;;10.16;83.91;96801.99;115551;1198;27982;-83
2021/10/04 04:54:00;;;;;;;10.20;6.80;;;;;;;10.21;84.09;96803.30;115566;1198;42625;-84
2021/10/04 04:56:31;;;;;;;9.30;7.00;;;;;;;10.30;84.06;96806.89;115572;1199;30384;-83
2021/10/04 04:59:02;;;;;;;10.50;6.60;;;;;;;10.53;84.19;96803.67;115553;1199;32417;-84
2021/10/04 05:01:33;;;;;;;10.30;6.80;;;;;;;10.84;83.92;96798.61;115622;1198;30172;-83
2021/10/04 05:04:04;;;;;;;9.20;6.50;;;;;;;11.16;83.64;96806.48;115512;1199;53229;-83
2021/10/04 05:06:35;;;;;;;9.50;6.70;;;;;;;11.52;83.00;96803.90;115462;1199;50836;-83
2021/10/04 05:09:06;;;;;;;8.30;5.40;;;;;;;11.80;81.82;96804.30;115544;1199;73843;-83
2021/10/04 05:11:37;;;;;;;9.40;6.40;;;;;;;12.02;81.08;96800.42;115554;1192;27144;-84
2021/10/04 05:14:08;;;;;;;8.30;5.60;;;;;;;12.27;80.72;96794.55;115540;1192;27628;-84
2021/10/04 05:16:39;;;;;;;8.60;5.70;;;;;;;12.75;80.25;96795.27;115539;1194;30859;-83
2021/10/04 05:19:09;;;;;;;9.60;5.70;;;;;;;13.18;79.06;96790.84;115552;1199;29212;-84
2021/10/04 05:21:40;;;;;;;11.70;5.70;;;;;;;13.63;78.35;96796.83;115573;1199;28451;-83
2021/10/04 05:24:12;;;;;;;7.80;5.20;;;;;;;14.09;77.26;96796.91;115553;1192;36561;-83
2021/10/04 05:26:43;;;;;;;6.60;5.20;;;;;;;14.52;75.96;96793.09;115194;1200;42341;-84
2021/10/04 05:29:15;;;;;;;7.70;5.10;;;;;;;14.92;74.63;96792.88;115131;1200;28648;-83
2021/10/04 05:31:46;;;;;;;7.00;5.10;;;;;;;15.31;73.20;96794.37;115332;1199;27830;-84
2021/10/04 05:34:17;;;;;;;8.20;5.30;;;;;;;15.64;71.95;96794.77;115437;1192;28705;-85
2021/10/04 05:36:48;;;;;;;5.20;4.60;;;;;;;16.03;70.36;96794.09;115534;1198;52909;-84
2021/10/04 05:39:19;;;;;;;9.40;4.70;;;;;;;16.35;69.42;96798.42;115630;1199;28808;-85
2021/10/04 05:41:50;;;;;;;7.40;4.80;;;;;;;16.72;68.20;96798.66;115556;1198;29052;-85
2021/10/04 05:44:21;;;;;;;8.90;4.60;;;;;;;17.08;67.07;96803.50;115584;1199;29249;-83
2021/10/04 05:46:52;;;;;;;6.00;4.70;;;;;;;17.44;65.88;96802.31;115471;1199;61322;-85
2021/10/04 05:49:22;;;;;;;6.30;4.20;;;;;;;17.82;64.90;96801.52;115560;1199;30101;-84
2021/10/04 05:51:53;;;;;;;7.50;4.90;;;;;;;18.13;62.75;96796.42;115552;1199;29230;-84
2021/10/04 05:54:25;;;;;;;6.70;4.30;;;;;;;18.46;63.23;96795.89;115555;1199;30005;-83
2021/10/04 05:56:56;;;;;;;5.90;4.30;;;;;;;19.00;62.89;96798.83;115496;1199;73893;-85
2021/10/04 05:59:26;;;;;;;6.30;4.30;;;;;;;19.45;61.51;96796.30;115525;1199;29807;-85
2021/10/04 06:01:57;;;;;;;6.30;4.30;;;;;;;19.78;61.09;96795.60;115571;1199;29226;-86
2021/10/04 06:04:28;;;;;;;7.00;4.10;;;;;;;20.06;59.49;96795.48;115517;1193;30650;-85
2021/10/04 06:06:59;;;;;;;6.60;3.80;;;;;;;20.01;58.35;96800.16;115464;1199;31081;-86
2021/10/04 06:09:29;;;;;;;5.30;3.80;;;;;;;20.41;57.36;96794.39;115368;1199;29490;-85
2021/10/04 06:12:00;;;;;;;6.90;3.80;;;;;;;21.13;57.55;96802.75;115488;1199;32707;-84
2021/10/04 06:14:31;;;;;;;5.60;3.90;;;;;;;21.79;55.60;96804.73;115546;1199;29079;-86
2021/10/04 06:17:02;;;;;;;6.00;4.30;;;;;;;22.41;56.18;96803.73;115415;1192;31217;-86
2021/10/04 06:19:33;;;;;;;4.80;3.60;;;;;;;23.05;55.06;96799.66;115061;1200;55509;-86
2021/10/04 06:22:04;;;;;;;5.30;4.10;;;;;;;23.49;53.61;96802.73;115483;1199;34924;-85
2021/10/04 06:24:35;;;;;;;5.30;3.90;;;;;;;23.57;52.23;96804.13;115486;1192;29482;-85
2021/10/04 06:27:08;;;;;;;5.60;4.20;;;;;;;24.05;51.35;96797.59;115260;1199;36464;-84
2021/10/04 06:29:39;;;;;;;6.50;4.20;;;;;;;24.57;50.89;96796.44;115507;1199;29430;-85
2021/10/04 06:32:10;;;;;;;4.80;3.70;;;;;;;24.47;49.86;96799.08;115503;1199;33421;-85
2021/10/04 06:34:41;;;;;;;5.60;3.80;;;;;;;24.77;49.04;96798.21;115538;1199;28134;-85
2021/10/04 06:37:11;;;;;;;4.70;3.60;;;;;;;25.06;48.52;96799.02;115557;1199;28575;-86
2021/10/04 06:39:42;;;;;;;6.10;3.70;;;;;;;25.48;47.68;96801.95;115549;1199;40865;-85
2021/10/04 06:45:05;;;;;;;5.10;3.60;;;;;;;25.98;45.75;96810.81;112726;1198;3529348;-85
2021/10/04 06:47:36;;;;;;;6.30;3.90;;;;;;;26.42;46.23;96810.83;115492;1199;27846;-86
2021/10/04 06:50:09;;;;;;;4.60;3.40;;;;;;;27.08;45.53;96814.02;115390;1199;26355;-85
2021/10/04 06:52:41;;;;;;;4.70;3.70;;;;;;;27.63;44.30;96817.02;115321;1199;41391;-84
2021/10/04 06:55:12;;;;;;;5.80;4.30;;;;;;;27.68;42.93;96816.27;115400;1199;29314;-85
2021/10/04 06:57:43;;;;;;;6.40;3.90;;;;;;;27.77;41.88;96816.60;115344;1199;29951;-86
2021/10/04 07:00:21;;;;;;;5.70;4.10;;;;;;;27.37;40.24;96822.96;115482;1192;28246;-85
2021/10/04 07:02:55;;;;;;;5.70;3.60;;;;;;;27.11;40.53;96820.27;115450;1198;29335;-85
2021/10/04 07:05:26;;;;;;;7.60;4.70;;;;;;;26.97;40.60;96820.16;115588;1199;29345;-84
2021/10/04 07:07:57;;;;;;;5.50;4.20;;;;;;;26.75;39.86;96822.34;115572;1192;30558;-85
2021/10/04 07:10:29;;;;;;;6.30;4.10;;;;;;;26.54;40.30;96824.15;115294;1200;32584;-85
2021/10/04 07:13:00;;;;;;;5.80;4.00;;;;;;;26.68;40.79;96832.02;115492;1199;32883;-84
2021/10/04 07:15:31;;;;;;;8.40;4.40;;;;;;;27.01;40.29;96828.20;115508;1199;45163;-85
2021/10/04 07:18:02;;;;;;;7.00;4.20;;;;;;;27.00;39.44;96825.48;115448;1192;32933;-85
2021/10/04 07:20:33;;;;;;;6.70;4.20;;;;;;;26.91;40.65;96829.61;115579;1199;30373;-84
2021/10/04 07:23:04;;;;;;;5.90;4.20;;;;;;;27.44;40.99;96832.56;115614;1198;25948;-85
2021/10/04 07:25:36;;;;;;;6.70;3.90;;;;;;;27.46;40.88;96835.08;115362;1199;55618;-84
2021/10/04 07:28:08;;;;;;;6.90;4.10;;;;;;;27.70;40.86;96829.73;115558;1199;27143;-87
2021/10/04 07:30:39;;;;;;;5.30;4.10;;;;;;;27.88;40.70;96835.15;115513;1199;31472;-86
2021/10/04 07:33:11;;;;;;;4.70;3.60;;;;;;;28.06;40.32;96838.23;115554;1199;31193;-86
2021/10/04 07:35:42;;;;;;;7.30;3.70;;;;;;;28.06;40.23;96830.67;115534;1198;31734;-86
2021/10/04 07:38:13;;;;;;;7.70;3.70;;;;;;;28.00;40.82;96834.70;115548;1199;31891;-85
2021/10/04 07:40:43;;;;;;;5.80;4.10;;;;;;;27.61;40.38;96833.17;115561;1199;33651;-86
2021/10/04 07:43:18;;;;;;;6.00;3.90;;;;;;;27.14;40.84;96833.58;115561;1199;27610;-86
2021/10/04 07:45:50;;;;;;;8.80;4.40;;;;;;;26.84;40.99;96831.42;115643;1192;27246;-85
2021/10/04 07:48:21;;;;;;;6.90;4.20;;;;;;;26.47;41.66;96834.18;115585;1192;52717;-85
2021/10/04 07:50:51;;;;;;;5.30;4.20;;;;;;;26.21;41.90;96838.43;115623;1199;25986;-85
2021/10/04 07:53:22;;;;;;;5.30;4.10;;;;;;;25.63;41.63;96831.39;115594;1199;28469;-84
2021/10/04 07:55:53;;;;;;;5.80;4.10;;;;;;;25.14;42.54;96834.88;115497;1192;38407;-85
2021/10/04 07:58:24;;;;;;;6.70;4.00;;;;;;;24.77;42.65;96834.92;115535;1199;27519;-86
2021/10/04 08:00:54;;;;;;;5.50;4.20;;;;;;;24.62;43.77;96836.33;115543;1199;27669;-86
2021/10/04 08:03:25;;;;;;;6.20;3.80;;;;;;;24.80;44.43;96835.30;115546;1184;29649;-85
2021/10/04 08:05:56;;;;;;;6.80;4.30;;;;;;;24.88;44.42;96834.87;115540;1192;27254;-85
2021/10/04 08:08:27;;;;;;;6.50;4.40;;;;;;;24.60;43.51;96837.08;115531;1199;28403;-85
2021/10/04 08:10:57;;;;;;;6.70;4.50;;;;;;;24.33;44.74;96836.33;115555;1192;28888;-85
2021/10/04 08:13:28;;;;;;;6.30;4.40;;;;;;;24.13;44.53;96843.23;115542;1198;27674;-85
2021/10/04 08:16:00;;;;;;;8.10;4.60;;;;;;;23.76;44.72;96838.54;115489;1199;32599;-85
2021/10/04 08:18:31;;;;;;;7.70;4.40;;;;;;;23.59;45.18;96834.28;115463;1199;29771;-84
2021/10/04 08:21:01;;;;;;;6.30;4.60;;;;;;;23.42;45.56;96834.28;115502;1199;29788;-84
2021/10/04 08:23:32;;;;;;;7.90;4.50;;;;;;;22.99;46.07;96836.70;115362;1199;26882;-84
2021/10/04 08:26:03;;;;;;;6.10;4.30;;;;;;;22.77;46.93;96837.81;115354;1199;27414;-83
2021/10/04 08:28:34;;;;;;;8.20;5.20;;;;;;;22.62;46.71;96843.24;115297;1200;28050;-82
2021/10/04 08:31:06;;;;;;;8.40;4.90;;;;;;;22.54;47.20;96840.59;115248;1194;30575;-83
2021/10/04 08:33:37;;;;;;;7.80;4.90;;;;;;;22.47;46.98;96841.82;115459;1199;27770;-84
2021/10/04 08:36:08;;;;;;;7.70;4.90;;;;;;;22.34;47.57;96843.73;115583;1192;28799;-83
2021/10/04 08:38:38;;;;;;;8.00;5.00;;;;;;;22.27;47.50;96842.58;115540;1199;34715;-84
2021/10/04 08:41:10;;;;;;;6.70;5.10;;;;;;;22.21;47.93;96845.56;115507;1199;30051;-83
2021/10/04 08:43:48;;;;;;;8.40;4.90;;;;;;;22.22;47.90;96839.94;115604;1192;30347;-83
2021/10/04 08:46:20;;;;;;;5.80;4.30;;;;;;;22.13;47.93;96840.27;115530;1199;27152;-83
2021/10/04 08:48:51;;;;;;;8.90;5.30;;;;;;;22.04;47.94;96839.94;115623;1199;29708;-84
2021/10/04 08:51:22;;;;;;;7.50;5.20;;;;;;;21.88;48.68;96833.36;115460;1192;55408;-86
2021/10/04 08:53:53;;;;;;;8.50;6.00;;;;;;;21.85;48.89;96835.75;115465;1199;37669;-84
2021/10/04 08:56:24;;;;;;;6.00;4.60;;;;;;;21.76;48.70;96837.34;115417;1199;31349;-84
2021/10/04 08:58:55;;;;;;;6.20;4.70;;;;;;;21.51;48.67;96835.80;115475;1199;29020;-86
2021/10/04 09:01:27;;;;;;;6.80;4.90;;;;;;;21.32;49.34;96839.44;115435;1199;54958;-86
2021/10/04 09:04:00;;;;;;;6.90;5.10;;;;;;;21.32;49.77;96832.20;115381;1199;38915;-84
2021/10/04 09:06:35;;;;;;;7.80;5.60;;;;;;;21.34;49.81;96833.02;115460;1192;33891;-84
2021/10/04 09:09:08;;;;;;;6.40;4.80;;;;;;;21.32;50.39;96832.61;115386;1193;46883;-85
2021/10/04 09:11:42;;;;;;;6.70;5.40;;;;;;;21.32;50.29;96832.45;115308;1199;72143;-85
2021/10/04 09:14:16;;;;;;;8.20;5.10;;;;;;;21.27;50.25;96828.22;112643;1199;2038263;-84
2021/10/04 09:16:59;;;;;;;7.60;5.10;;;;;;;21.20;50.59;96829.45;115393;1199;37986;-85
2021/10/04 09:19:32;;;;;;;7.80;5.50;;;;;;;21.03;51.17;96824.79;115366;1192;59289;-85
2021/10/04 09:22:12;;;;;;;8.80;5.20;;;;;;;20.97;50.96;96827.39;115432;1199;35655;-86
2021/10/04 09:24:45;;;;;;;6.40;5.00;;;;;;;20.97;51.41;96823.40;113377;1199;1177569;-85
2021/10/04 09:27:32;;;;;;;8.50;5.80;;;;;;;20.91;51.64;96823.58;115375;1199;34252;-86
2021/10/04 09:30:05;;;;;;;7.30;4.70;;;;;;;20.95;52.01;96824.91;115418;1192;70961;-84
2021/10/04 09:32:40;;;;;;;7.50;5.50;;;;;;;20.93;51.81;96827.72;115502;1199;32116;-84
2021/10/04 09:35:26;;;;;;;7.80;5.40;;;;;;;20.91;51.79;96830.36;115445;1198;34653;-85
2021/10/04 09:38:17;;;;;;;8.60;5.20;;;;;;;21.02;52.45;96824.36;115411;1199;39824;-84
2021/10/04 09:40:51;;;;;;;7.30;5.20;;;;;;;21.10;51.97;96823.73;115377;1200;50368;-85
2021/10/04 09:43:27;;;;;;;6.10;4.60;;;;;;;21.10;51.88;96822.97;113865;1199;1786496;-84
2021/10/04 09:46:04;;;;;;;7.70;5.60;;;;;;;21.06;51.60;96824.24;115151;1199;81724;-85
2021/10/04 09:48:35;;;;;;;6.80;5.00;;;;;;;21.09;51.57;96826.48;113974;1199;1768639;-85
2021/10/04 09:51:17;;;;;;;7.20;4.90;;;;;;;21.11;51.14;96825.62;115415;1192;30080;-84
2021/10/04 09:54:08;;;;;;;5.90;4.80;;;;;;;21.17;50.89;96825.12;115535;1199;33605;-83
2021/10/04 09:56:40;;;;;;;6.10;4.50;;;;;;;21.27;51.16;96819.04;115255;1200;69278;-83
2021/10/04 09:59:11;;;;;;;8.50;4.90;;;;;;;21.42;50.87;96821.75;115415;1199;53743;-85
2021/10/04 10:01:42;;;;;;;7.60;5.40;;;;;;;21.49;51.00;96819.02;115490;1192;64366;-84
2021/10/04 10:04:20;;;;;;;9.70;4.70;;;;;;;21.45;50.91;96822.48;115408;1199;30953;-84
2021/10/04 10:06:51;;;;;;;7.70;5.10;;;;;;;21.48;50.79;96817.83;115445;1199;30049;-85
2021/10/04 10:09:21;;;;;;;11.80;5.80;;;;;;;21.50;51.26;96815.83;115402;1199;61499;-86
2021/10/04 10:11:52;;;;;;;8.10;5.30;;;;;;;21.50;51.86;96812.83;115498;1192;35830;-86
2021/10/04 10:14:29;;;;;;;8.90;5.30;;;;;;;21.58;51.98;96815.75;115366;1195;80175;-84
2021/10/04 10:17:01;;;;;;;8.10;5.20;;;;;;;21.65;51.04;96817.46;112077;1199;2032570;-85
2021/10/04 10:19:39;;;;;;;8.10;5.20;;;;;;;21.62;50.50;96810.05;97770;1199;6828892;-83
2021/10/04 10:22:16;;;;;;;6.70;5.30;;;;;;;21.67;50.40;96817.20;113836;1199;1832462;-84
2021/10/04 10:24:50;;;;;;;8.10;5.40;;;;;;;21.76;50.32;96811.45;115307;1192;54307;-85
2021/10/04 10:27:38;;;;;;;9.70;5.10;;;;;;;21.85;50.76;96814.30;115447;1199;36821;-85
2021/10/04 10:30:23;;;;;;;9.90;5.10;;;;;;;21.74;50.67;96815.09;115229;1200;64325;-86
2021/10/04 10:32:55;;;;;;;7.10;4.60;;;;;;;21.75;51.90;96811.72;111511;1200;2049889;-84
2021/10/04 10:35:48;;;;;;;7.70;4.70;;;;;;;21.78;50.99;96807.23;113841;1192;1876139;-84
2021/10/04 10:39:00;;;;;;;7.70;4.80;;;;;;;21.77;51.00;96805.84;115542;1195;34270;-84
2021/10/04 10:41:31;;;;;;;6.90;4.80;;;;;;;21.79;51.47;96799.11;115335;1199;50993;-85
2021/10/04 10:44:07;;;;;;;6.90;5.00;;;;;;;21.82;51.69;96802.40;115274;1199;82184;-84
2021/10/04 10:46:53;;;;;;;9.10;5.00;;;;;;;21.83;51.13;96807.69;115404;1199;35986;-83
2021/10/04 10:49:59;;;;;;;7.20;4.60;;;;;;;21.79;50.82;96806.73;115429;1199;30602;-82
2021/10/04 10:52:33;;;;;;;7.20;4.90;;;;;;;21.83;51.44;96804.67;115503;1192;29272;-84
2021/10/04 10:55:27;;;;;;;8.30;5.00;;;;;;;21.86;50.76;96806.92;114458;1199;1230949;-85
2021/10/04 10:58:09;;;;;;;6.40;4.50;;;;;;;21.81;50.84;96806.94;115412;1199;54584;-84
2021/10/04 11:00:44;;;;;;;7.00;4.90;;;;;;;21.82;51.02;96807.06;115469;1199;57603;-84
2021/10/04 11:03:18;;;;;;;7.30;4.70;;;;;;;21.85;50.88;96805.05;115466;1198;50371;-84
2021/10/04 11:06:06;;;;;;;7.10;4.50;;;;;;;21.91;51.11;96802.41;115512;1192;33385;-84
2021/10/04 11:08:56;;;;;;;6.50;4.60;;;;;;;22.01;51.02;96802.90;115425;1199;77908;-83
2021/10/04 11:11:30;;;;;;;7.10;5.10;;;;;;;22.09;50.09;96802.67;115312;1200;36991;-87
2021/10/04 11:14:10;;;;;;;5.40;4.40;;;;;;;22.16;50.84;96804.63;115365;1199;60263;-85
2021/10/04 11:16:44;;;;;;;7.30;5.10;;;;;;;22.24;51.16;96798.26;115085;1199;81800;-85
2021/10/04 11:19:25;;;;;;;6.90;4.50;;;;;;;22.30;50.87;96801.20;115435;1199;33809;-85
2021/10/04 11:21:56;;;;;;;7.90;4.90;;;;;;;22.39;50.64;96800.26;115469;1199;33788;-85
2021/10/04 11:24:28;;;;;;;6.40;4.20;;;;;;;22.45;50.16;96796.21;115494;1199;31249;-85
2021/10/04 11:27:02;;;;;;;9.80;5.00;;;;;;;22.41;49.98;96794.66;115491;1199;29124;-85
2021/10/04 11:29:35;;;;;;;6.50;4.30;;;;;;;22.42;50.00;96788.98;115464;1198;54322;-85
2021/10/04 11:32:17;;;;;;;5.00;4.10;;;;;;;22.48;50.70;96790.56;115463;1199;50321;-85
2021/10/04 11:34:48;;;;;;;6.60;3.80;;;;;;;22.55;50.27;96791.73;115591;1198;28717;-84
2021/10/04 11:37:26;;;;;;;6.60;4.40;;;;;;;22.54;50.27;96787.71;115560;1199;30563;-85
2021/10/04 11:39:57;;;;;;;6.00;4.00;;;;;;;22.50;50.39;96789.07;115487;1184;28483;-84
2021/10/04 11:42:28;;;;;;;6.70;4.60;;;;;;;22.56;50.41;96786.52;115518;1199;28731;-85
2021/10/04 11:45:00;;;;;;;6.00;4.00;;;;;;;22.65;50.26;96782.38;115496;1199;27844;-86
2021/10/04 11:47:31;;;;;;;7.60;4.30;;;;;;;22.74;50.44;96781.59;115436;1199;33853;-85
2021/10/04 11:50:06;;;;;;;9.30;4.30;;;;;;;22.76;50.07;96778.84;115464;1199;31250;-85
2021/10/04 11:52:38;;;;;;;6.20;4.30;;;;;;;22.75;49.82;96781.06;115523;1199;29990;-86
2021/10/04 11:55:11;;;;;;;7.00;4.80;;;;;;;22.76;50.62;96777.70;115511;1198;26894;-86